FBSK/GBE METAR and TAF weather

Enter ICAO airport designator
Station Type Date Time Source
FBSK METAR 2018/01/16 09:00 UTC NOAA

FBSK 160900Z 05013KT 360V080 9999 FEW030 SCT070 30/10 Q1020 NOSIG


Station Type Date Time Source
FBSK Decoded METAR 2018/01/16 09:00 UTC NOAA

Seretse Khama International Airport, Botswana (FBSK) 24-13S 025-55E 1005M
Jan 16, 2018 - 04:00 AM EST / 2018.01.16 0900 UTC
Wind: from the NE (050 degrees) at 15 MPH (13 KT) (direction variable):0
Visibility: greater than 7 mile(s):0
Sky conditions: partly cloudy
Temperature: 86 F (30 C)
Dew Point: 50 F (10 C)
Relative Humidity: 28%
Pressure (altimeter): 30.12 in. Hg (1020 hPa)
ob: FBSK 160900Z 05013KT 360V080 9999 FEW030 SCT070 30/10 Q1020 NOSIG
cycle: 9

Station Type Date Time Source
FBSK TAF 2018/01/16 06:00 UTC NOAA

TAF FBSK 160300Z 1606/1712 05018KT CAVOK=


Example: see airport list